Terminal Aerodrome Forecast
Issued by NWS Sioux Falls, SD

Home | Current Version | Previous Version | Graphics & Text | Print | Product List | Glossary Off
Versions: 1 2 3 4 5 6 7 8 9 10 11 12 13 14 15 16

000
FTUS43 KFSD 251700
TAFFSD
TAF
KFSD 251720Z 2518/2618 32009KT P6SM SCT100 BKN200
     FM260400 34004KT P6SM BKN100
     FM261000 04008KT P6SM BKN080=

USA.gov is the U.S. government's official web portal to all federal, state and local government web resources and services.